sensor_id;sensor_type;location;lat;lon;timestamp;pressure;altitude;pressure_sealevel;temperature;humidity
42671;BME280;28283;55.426;37.756;2023-04-06T00:00:12;99995.63;;;5.38;73.28
42671;BME280;28283;55.426;37.756;2023-04-06T00:05:14;99999.00;;;5.40;73.47
42671;BME280;28283;55.426;37.756;2023-04-06T00:10:16;100005.56;;;5.46;73.52
42671;BME280;28283;55.426;37.756;2023-04-06T00:15:17;100008.59;;;5.33;73.88
42671;BME280;28283;55.426;37.756;2023-04-06T00:20:18;100008.34;;;5.26;74.09
42671;BME280;28283;55.426;37.756;2023-04-06T00:25:19;100012.69;;;5.27;74.00
42671;BME280;28283;55.426;37.756;2023-04-06T00:30:19;100007.97;;;5.21;74.22
42671;BME280;28283;55.426;37.756;2023-04-06T00:35:20;100007.28;;;5.19;74.54
42671;BME280;28283;55.426;37.756;2023-04-06T00:40:21;100003.38;;;5.13;74.43
42671;BME280;28283;55.426;37.756;2023-04-06T00:45:22;100003.28;;;5.05;74.33
42671;BME280;28283;55.426;37.756;2023-04-06T00:50:22;100002.06;;;5.00;74.34
42671;BME280;28283;55.426;37.756;2023-04-06T00:55:23;99987.41;;;4.86;74.47
42671;BME280;28283;55.426;37.756;2023-04-06T01:00:24;99991.34;;;4.82;75.28
42671;BME280;28283;55.426;37.756;2023-04-06T01:05:24;100000.31;;;4.81;75.04
42671;BME280;28283;55.426;37.756;2023-04-06T01:10:27;99982.44;;;4.73;75.54
42671;BME280;28283;55.426;37.756;2023-04-06T01:20:34;99993.56;;;4.58;75.95
42671;BME280;28283;55.426;37.756;2023-04-06T01:25:35;99992.88;;;4.56;76.04
42671;BME280;28283;55.426;37.756;2023-04-06T01:30:36;99996.22;;;4.58;75.91
42671;BME280;28283;55.426;37.756;2023-04-06T01:35:37;99992.19;;;4.54;76.47
42671;BME280;28283;55.426;37.756;2023-04-06T01:40:37;99999.38;;;4.44;75.98
42671;BME280;28283;55.426;37.756;2023-04-06T01:45:38;99993.50;;;4.40;76.08
42671;BME280;28283;55.426;37.756;2023-04-06T01:50:38;100002.06;;;4.34;76.28
42671;BME280;28283;55.426;37.756;2023-04-06T01:55:39;100004.72;;;4.34;76.60
42671;BME280;28283;55.426;37.756;2023-04-06T02:00:40;100009.66;;;4.29;76.96
42671;BME280;28283;55.426;37.756;2023-04-06T02:05:40;100014.41;;;4.26;77.08
42671;BME280;28283;55.426;37.756;2023-04-06T02:10:41;100027.88;;;4.24;76.66
42671;BME280;28283;55.426;37.756;2023-04-06T02:15:42;100026.63;;;4.18;76.84
42671;BME280;28283;55.426;37.756;2023-04-06T02:20:42;100032.34;;;4.14;77.17
42671;BME280;28283;55.426;37.756;2023-04-06T02:25:43;100030.69;;;4.13;77.24
42671;BME280;28283;55.426;37.756;2023-04-06T02:30:44;100030.97;;;4.10;77.09
42671;BME280;28283;55.426;37.756;2023-04-06T02:35:45;100046.78;;;4.11;77.06
42671;BME280;28283;55.426;37.756;2023-04-06T02:40:48;100041.19;;;4.05;77.10
42671;BME280;28283;55.426;37.756;2023-04-06T02:45:49;100008.47;;;3.85;77.56
42671;BME280;28283;55.426;37.756;2023-04-06T02:50:50;100006.22;;;3.70;77.34
42671;BME280;28283;55.426;37.756;2023-04-06T02:55:50;100041.34;;;3.83;77.62
42671;BME280;28283;55.426;37.756;2023-04-06T03:00:51;100047.22;;;3.77;77.71
42671;BME280;28283;55.426;37.756;2023-04-06T03:05:52;100043.00;;;3.75;78.02
42671;BME280;28283;55.426;37.756;2023-04-06T03:10:54;100041.91;;;3.68;78.06
42671;BME280;28283;55.426;37.756;2023-04-06T03:15:56;100046.81;;;3.72;78.11
42671;BME280;28283;55.426;37.756;2023-04-06T03:20:56;100052.00;;;3.74;78.40
42671;BME280;28283;55.426;37.756;2023-04-06T03:25:57;100051.72;;;3.77;78.04
42671;BME280;28283;55.426;37.756;2023-04-06T03:30:58;100061.06;;;3.71;78.44
42671;BME280;28283;55.426;37.756;2023-04-06T03:35:58;100069.91;;;3.72;78.55
42671;BME280;28283;55.426;37.756;2023-04-06T03:40:59;100061.63;;;3.75;78.08
42671;BME280;28283;55.426;37.756;2023-04-06T03:46:00;100076.06;;;3.72;78.26
42671;BME280;28283;55.426;37.756;2023-04-06T03:51:01;100075.50;;;3.69;77.90
42671;BME280;28283;55.426;37.756;2023-04-06T03:56:01;100077.44;;;3.67;78.16
42671;BME280;28283;55.426;37.756;2023-04-06T04:01:02;100087.13;;;3.77;78.09
42671;BME280;28283;55.426;37.756;2023-04-06T04:06:05;100087.13;;;3.77;78.31
42671;BME280;28283;55.426;37.756;2023-04-06T04:11:06;100095.22;;;3.86;77.94
42671;BME280;28283;55.426;37.756;2023-04-06T04:16:06;100097.31;;;4.01;77.98
42671;BME280;28283;55.426;37.756;2023-04-06T04:21:07;100082.78;;;3.96;77.30
42671;BME280;28283;55.426;37.756;2023-04-06T04:26:08;100094.38;;;4.14;77.20
42671;BME280;28283;55.426;37.756;2023-04-06T04:31:09;100099.28;;;4.29;76.76
42671;BME280;28283;55.426;37.756;2023-04-06T04:36:09;100093.38;;;4.45;76.66
42671;BME280;28283;55.426;37.756;2023-04-06T04:41:10;100092.22;;;4.67;75.84
42671;BME280;28283;55.426;37.756;2023-04-06T04:46:11;100086.28;;;4.73;75.33
42671;BME280;28283;55.426;37.756;2023-04-06T04:51:11;100102.97;;;5.12;74.76
42671;BME280;28283;55.426;37.756;2023-04-06T04:56:12;100095.31;;;5.27;73.85
42671;BME280;28283;55.426;37.756;2023-04-06T05:01:13;100093.19;;;5.31;73.04
42671;BME280;28283;55.426;37.756;2023-04-06T05:06:16;100092.53;;;5.47;73.18
42671;BME280;28283;55.426;37.756;2023-04-06T05:11:16;100108.16;;;5.87;72.27
42671;BME280;28283;55.426;37.756;2023-04-06T05:16:17;100089.78;;;6.02;71.00
42671;BME280;28283;55.426;37.756;2023-04-06T05:21:18;100099.38;;;6.31;69.91
42671;BME280;28283;55.426;37.756;2023-04-06T05:26:19;100106.06;;;6.35;69.78
42671;BME280;28283;55.426;37.756;2023-04-06T05:31:20;100105.16;;;6.44;69.66
42671;BME280;28283;55.426;37.756;2023-04-06T05:36:29;100109.22;;;6.57;69.37
42671;BME280;28283;55.426;37.756;2023-04-06T05:41:31;100097.91;;;6.89;68.37
42671;BME280;28283;55.426;37.756;2023-04-06T05:46:32;100105.28;;;7.21;67.49
42671;BME280;28283;55.426;37.756;2023-04-06T05:51:32;100099.75;;;7.74;66.69
42671;BME280;28283;55.426;37.756;2023-04-06T05:56:33;100109.84;;;8.05;64.90
42671;BME280;28283;55.426;37.756;2023-04-06T06:01:34;100117.53;;;8.16;64.46
42671;BME280;28283;55.426;37.756;2023-04-06T06:06:35;100104.31;;;8.39;64.07
42671;BME280;28283;55.426;37.756;2023-04-06T06:11:37;100101.16;;;8.52;63.27
42671;BME280;28283;55.426;37.756;2023-04-06T06:16:38;100081.88;;;8.32;62.51
42671;BME280;28283;55.426;37.756;2023-04-06T06:21:39;100111.03;;;8.35;63.22
42671;BME280;28283;55.426;37.756;2023-04-06T06:26:39;100090.91;;;8.31;62.58
42671;BME280;28283;55.426;37.756;2023-04-06T06:31:41;100116.41;;;8.51;62.14
42671;BME280;28283;55.426;37.756;2023-04-06T06:36:41;100084.09;;;8.53;61.84
42671;BME280;28283;55.426;37.756;2023-04-06T06:41:42;100113.78;;;9.07;61.00
42671;BME280;28283;55.426;37.756;2023-04-06T06:46:43;100115.84;;;9.36;60.21
42671;BME280;28283;55.426;37.756;2023-04-06T06:51:44;100105.41;;;9.42;59.72
42671;BME280;28283;55.426;37.756;2023-04-06T06:56:45;100108.28;;;9.40;59.32
42671;BME280;28283;55.426;37.756;2023-04-06T07:01:46;100107.38;;;9.56;59.22
42671;BME280;28283;55.426;37.756;2023-04-06T07:06:46;100097.81;;;9.85;58.51
42671;BME280;28283;55.426;37.756;2023-04-06T07:11:47;100068.09;;;9.86;58.15
42671;BME280;28283;55.426;37.756;2023-04-06T07:16:48;100102.56;;;10.21;57.54
42671;BME280;28283;55.426;37.756;2023-04-06T07:21:50;100098.16;;;10.51;56.43
42671;BME280;28283;55.426;37.756;2023-04-06T07:26:51;100093.84;;;10.65;56.42
42671;BME280;28283;55.426;37.756;2023-04-06T07:31:52;100098.84;;;10.98;55.88
42671;BME280;28283;55.426;37.756;2023-04-06T07:36:52;100096.19;;;11.13;54.44
42671;BME280;28283;55.426;37.756;2023-04-06T07:41:53;100110.91;;;11.32;57.31
42671;BME280;28283;55.426;37.756;2023-04-06T07:46:54;100098.47;;;11.16;54.01
42671;BME280;28283;55.426;37.756;2023-04-06T07:51:56;100086.25;;;11.13;54.43
42671;BME280;28283;55.426;37.756;2023-04-06T07:56:56;100104.81;;;11.38;53.43
42671;BME280;28283;55.426;37.756;2023-04-06T08:01:57;100101.16;;;11.45;53.18
42671;BME280;28283;55.426;37.756;2023-04-06T08:06:57;100097.97;;;11.57;52.59
42671;BME280;28283;55.426;37.756;2023-04-06T08:11:58;100089.97;;;11.63;51.83
42671;BME280;28283;55.426;37.756;2023-04-06T08:16:59;100079.47;;;11.69;52.19
42671;BME280;28283;55.426;37.756;2023-04-06T08:22:00;100092.44;;;11.80;51.99
42671;BME280;28283;55.426;37.756;2023-04-06T08:27:00;100098.84;;;11.94;51.48
42671;BME280;28283;55.426;37.756;2023-04-06T08:32:01;100090.63;;;12.02;51.01
42671;BME280;28283;55.426;37.756;2023-04-06T08:37:06;100083.50;;;12.16;50.42
42671;BME280;28283;55.426;37.756;2023-04-06T08:42:10;100090.44;;;12.53;52.54
42671;BME280;28283;55.426;37.756;2023-04-06T08:47:12;100092.91;;;12.48;49.88
42671;BME280;28283;55.426;37.756;2023-04-06T08:52:13;100077.47;;;12.64;49.40
42671;BME280;28283;55.426;37.756;2023-04-06T08:57:16;100076.78;;;12.83;49.00
42671;BME280;28283;55.426;37.756;2023-04-06T09:02:18;100073.38;;;13.09;48.08
42671;BME280;28283;55.426;37.756;2023-04-06T09:07:19;100082.88;;;13.33;47.83
42671;BME280;28283;55.426;37.756;2023-04-06T09:12:27;100076.50;;;13.48;45.75
42671;BME280;28283;55.426;37.756;2023-04-06T09:17:30;100072.16;;;13.60;46.47
42671;BME280;28283;55.426;37.756;2023-04-06T09:22:36;100074.06;;;13.66;45.06
42671;BME280;28283;55.426;37.756;2023-04-06T09:27:38;100072.66;;;13.84;45.37
42671;BME280;28283;55.426;37.756;2023-04-06T09:32:49;100070.63;;;14.12;45.36
42671;BME280;28283;55.426;37.756;2023-04-06T09:37:51;100062.09;;;14.49;44.14
42671;BME280;28283;55.426;37.756;2023-04-06T09:42:52;100063.78;;;14.63;43.18
42671;BME280;28283;55.426;37.756;2023-04-06T09:47:54;100074.56;;;14.90;42.82
42671;BME280;28283;55.426;37.756;2023-04-06T09:52:58;100071.38;;;15.06;42.63
42671;BME280;28283;55.426;37.756;2023-04-06T09:58:06;100059.69;;;15.19;42.11
42671;BME280;28283;55.426;37.756;2023-04-06T10:08:16;100067.81;;;15.64;41.77
42671;BME280;28283;55.426;37.756;2023-04-06T10:13:19;100076.50;;;15.87;39.88
42671;BME280;28283;55.426;37.756;2023-04-06T10:18:20;100053.53;;;15.89;39.98
42671;BME280;28283;55.426;37.756;2023-04-06T10:23:35;100071.69;;;16.46;41.71
42671;BME280;28283;55.426;37.756;2023-04-06T10:28:36;100061.81;;;16.51;38.66
42671;BME280;28283;55.426;37.756;2023-04-06T10:33:37;100019.22;;;16.52;38.45
42671;BME280;28283;55.426;37.756;2023-04-06T10:38:39;100062.38;;;16.78;38.41
42671;BME280;28283;55.426;37.756;2023-04-06T10:43:40;100058.88;;;16.96;38.13
42671;BME280;28283;55.426;37.756;2023-04-06T10:48:42;100054.16;;;17.10;36.93
42671;BME280;28283;55.426;37.756;2023-04-06T10:53:45;100045.47;;;17.20;37.14
42671;BME280;28283;55.426;37.756;2023-04-06T10:58:48;100034.22;;;17.16;36.83
42671;BME280;28283;55.426;37.756;2023-04-06T11:03:56;100057.91;;;17.46;36.50
42671;BME280;28283;55.426;37.756;2023-04-06T11:08:59;100046.16;;;17.95;36.26
42671;BME280;28283;55.426;37.756;2023-04-06T11:14:00;100045.81;;;18.03;34.55
42671;BME280;28283;55.426;37.756;2023-04-06T11:19:05;100035.59;;;17.86;35.45
42671;BME280;28283;55.426;37.756;2023-04-06T11:24:20;100051.28;;;18.26;34.18
42671;BME280;28283;55.426;37.756;2023-04-06T11:29:24;100055.38;;;18.59;33.27
42671;BME280;28283;55.426;37.756;2023-04-06T11:34:28;100052.97;;;18.98;32.81
42671;BME280;28283;55.426;37.756;2023-04-06T11:39:30;100033.56;;;19.06;32.67
42671;BME280;28283;55.426;37.756;2023-04-06T11:44:43;100039.03;;;19.35;32.44
42671;BME280;28283;55.426;37.756;2023-04-06T11:49:46;100040.88;;;19.58;31.65
42671;BME280;28283;55.426;37.756;2023-04-06T11:54:49;100040.06;;;19.87;31.31
42671;BME280;28283;55.426;37.756;2023-04-06T11:59:50;100024.41;;;19.99;30.96
42671;BME280;28283;55.426;37.756;2023-04-06T12:04:51;100034.03;;;20.52;34.07
42671;BME280;28283;55.426;37.756;2023-04-06T12:09:51;100036.09;;;20.11;29.72
42671;BME280;28283;55.426;37.756;2023-04-06T12:14:52;100036.69;;;20.64;30.85
42671;BME280;28283;55.426;37.756;2023-04-06T12:19:52;100035.19;;;20.39;29.06
42671;BME280;28283;55.426;37.756;2023-04-06T12:24:53;100031.47;;;20.12;29.37
42671;BME280;28283;55.426;37.756;2023-04-06T12:29:54;100024.34;;;20.28;29.95
42671;BME280;28283;55.426;37.756;2023-04-06T12:34:56;100028.00;;;19.71;29.81
42671;BME280;28283;55.426;37.756;2023-04-06T12:39:56;100009.91;;;18.95;29.94
42671;BME280;28283;55.426;37.756;2023-04-06T12:44:57;100025.28;;;18.54;31.12
42671;BME280;28283;55.426;37.756;2023-04-06T12:49:57;100025.03;;;18.20;31.50
42671;BME280;28283;55.426;37.756;2023-04-06T12:54:58;100031.03;;;17.99;32.17
42671;BME280;28283;55.426;37.756;2023-04-06T13:00:00;100027.13;;;17.64;32.22
42671;BME280;28283;55.426;37.756;2023-04-06T13:05:01;100026.84;;;17.54;32.44
42671;BME280;28283;55.426;37.756;2023-04-06T13:10:01;100003.88;;;17.20;32.79
42671;BME280;28283;55.426;37.756;2023-04-06T13:15:02;100011.88;;;17.14;33.15
42671;BME280;28283;55.426;37.756;2023-04-06T13:20:03;100017.63;;;17.06;33.02
42671;BME280;28283;55.426;37.756;2023-04-06T13:25:04;100023.41;;;17.28;34.16
42671;BME280;28283;55.426;37.756;2023-04-06T13:30:06;100023.22;;;16.93;33.26
42671;BME280;28283;55.426;37.756;2023-04-06T13:35:07;100016.91;;;16.74;33.17
42671;BME280;28283;55.426;37.756;2023-04-06T13:40:09;100015.16;;;16.61;33.74
42671;BME280;28283;55.426;37.756;2023-04-06T13:45:12;100014.19;;;16.55;33.54
42671;BME280;28283;55.426;37.756;2023-04-06T13:50:12;100007.72;;;16.31;33.95
42671;BME280;28283;55.426;37.756;2023-04-06T13:55:13;100018.88;;;16.41;34.31
42671;BME280;28283;55.426;37.756;2023-04-06T14:00:14;100024.16;;;16.36;34.36
42671;BME280;28283;55.426;37.756;2023-04-06T14:05:15;100016.19;;;16.16;34.91
42671;BME280;28283;55.426;37.756;2023-04-06T14:10:16;100019.44;;;16.00;34.58
42671;BME280;28283;55.426;37.756;2023-04-06T14:15:17;100016.63;;;15.88;35.28
42671;BME280;28283;55.426;37.756;2023-04-06T14:20:18;100014.34;;;15.85;35.09
42671;BME280;28283;55.426;37.756;2023-04-06T14:25:19;100016.50;;;15.76;35.27
42671;BME280;28283;55.426;37.756;2023-04-06T14:30:20;100011.97;;;15.63;35.18
42671;BME280;28283;55.426;37.756;2023-04-06T14:35:21;100028.28;;;15.50;35.48
42671;BME280;28283;55.426;37.756;2023-04-06T14:40:21;100011.91;;;15.38;35.31
42671;BME280;28283;55.426;37.756;2023-04-06T14:45:22;100004.28;;;15.15;36.01
42671;BME280;28283;55.426;37.756;2023-04-06T14:50:22;100009.94;;;15.07;36.43
42671;BME280;28283;55.426;37.756;2023-04-06T14:55:23;100012.28;;;14.97;36.89
42671;BME280;28283;55.426;37.756;2023-04-06T15:00:24;100012.69;;;15.00;37.05
42671;BME280;28283;55.426;37.756;2023-04-06T15:05:24;100006.06;;;14.89;36.91
42671;BME280;28283;55.426;37.756;2023-04-06T15:10:25;100020.28;;;14.72;37.32
42671;BME280;28283;55.426;37.756;2023-04-06T15:15:26;100016.94;;;14.63;37.72
42671;BME280;28283;55.426;37.756;2023-04-06T15:20:27;100026.91;;;14.49;37.80
42671;BME280;28283;55.426;37.756;2023-04-06T15:25:28;100032.78;;;14.39;37.91
42671;BME280;28283;55.426;37.756;2023-04-06T15:30:28;100024.44;;;14.27;38.13
42671;BME280;28283;55.426;37.756;2023-04-06T15:35:29;100035.47;;;14.12;38.06
42671;BME280;28283;55.426;37.756;2023-04-06T15:40:30;100045.03;;;14.02;37.94
42671;BME280;28283;55.426;37.756;2023-04-06T15:45:31;100043.75;;;13.84;38.07
42671;BME280;28283;55.426;37.756;2023-04-06T15:50:32;100045.59;;;13.70;38.46
42671;BME280;28283;55.426;37.756;2023-04-06T15:55:33;100063.22;;;13.60;38.29
42671;BME280;28283;55.426;37.756;2023-04-06T16:00:33;100046.66;;;13.28;38.46
42671;BME280;28283;55.426;37.756;2023-04-06T16:05:34;100051.97;;;13.08;38.59
42671;BME280;28283;55.426;37.756;2023-04-06T16:10:35;100078.94;;;13.01;38.71
42671;BME280;28283;55.426;37.756;2023-04-06T16:15:36;100089.59;;;12.81;39.12
42671;BME280;28283;55.426;37.756;2023-04-06T16:20:37;100096.69;;;12.82;38.69
42671;BME280;28283;55.426;37.756;2023-04-06T16:25:47;100095.22;;;12.51;38.89
42671;BME280;28283;55.426;37.756;2023-04-06T16:30:48;100070.66;;;12.18;38.52
42671;BME280;28283;55.426;37.756;2023-04-06T16:35:48;100085.75;;;12.12;39.16
42671;BME280;28283;55.426;37.756;2023-04-06T16:40:58;100102.34;;;12.16;39.08
42671;BME280;28283;55.426;37.756;2023-04-06T16:45:59;100117.09;;;11.98;38.95
42671;BME280;28283;55.426;37.756;2023-04-06T16:51:15;100113.03;;;11.88;39.22
42671;BME280;28283;55.426;37.756;2023-04-06T16:56:18;100112.44;;;11.71;39.71
42671;BME280;28283;55.426;37.756;2023-04-06T17:01:23;100122.47;;;11.62;39.88
42671;BME280;28283;55.426;37.756;2023-04-06T17:06:25;100130.88;;;11.52;39.60
42671;BME280;28283;55.426;37.756;2023-04-06T17:11:26;100142.09;;;11.41;40.27
42671;BME280;28283;55.426;37.756;2023-04-06T17:16:27;100121.13;;;11.21;39.32
42671;BME280;28283;55.426;37.756;2023-04-06T17:21:28;100151.66;;;11.14;40.11
42671;BME280;28283;55.426;37.756;2023-04-06T17:26:28;100141.53;;;11.01;39.53
42671;BME280;28283;55.426;37.756;2023-04-06T17:31:29;100144.41;;;10.84;39.89
42671;BME280;28283;55.426;37.756;2023-04-06T17:36:30;100162.56;;;10.82;40.11
42671;BME280;28283;55.426;37.756;2023-04-06T17:41:32;100168.94;;;10.66;39.88
42671;BME280;28283;55.426;37.756;2023-04-06T17:46:33;100170.84;;;10.58;39.48
42671;BME280;28283;55.426;37.756;2023-04-06T17:51:34;100172.28;;;10.45;40.69
42671;BME280;28283;55.426;37.756;2023-04-06T17:56:35;100156.78;;;10.24;40.36
42671;BME280;28283;55.426;37.756;2023-04-06T18:01:38;100174.94;;;10.22;40.11
42671;BME280;28283;55.426;37.756;2023-04-06T18:06:39;100164.66;;;10.03;39.80
42671;BME280;28283;55.426;37.756;2023-04-06T18:11:39;100169.25;;;9.94;39.36
42671;BME280;28283;55.426;37.756;2023-04-06T18:16:41;100169.81;;;9.81;39.45
42671;BME280;28283;55.426;37.756;2023-04-06T18:21:41;100182.94;;;9.76;39.35
42671;BME280;28283;55.426;37.756;2023-04-06T18:26:42;100185.50;;;9.69;39.18
42671;BME280;28283;55.426;37.756;2023-04-06T18:31:43;100184.38;;;9.55;39.38
42671;BME280;28283;55.426;37.756;2023-04-06T18:36:49;100203.66;;;9.51;38.90
42671;BME280;28283;55.426;37.756;2023-04-06T18:41:50;100191.34;;;9.33;38.86
42671;BME280;28283;55.426;37.756;2023-04-06T18:46:50;100149.50;;;9.00;39.17
42671;BME280;28283;55.426;37.756;2023-04-06T18:51:51;100196.06;;;9.15;38.77
42671;BME280;28283;55.426;37.756;2023-04-06T18:56:52;100205.28;;;9.21;39.32
42671;BME280;28283;55.426;37.756;2023-04-06T19:01:53;100200.13;;;8.94;39.19
42671;BME280;28283;55.426;37.756;2023-04-06T19:06:54;100203.00;;;8.85;39.19
42671;BME280;28283;55.426;37.756;2023-04-06T19:11:55;100200.63;;;8.73;39.26
42671;BME280;28283;55.426;37.756;2023-04-06T19:16:56;100190.25;;;8.54;39.64
42671;BME280;28283;55.426;37.756;2023-04-06T19:21:57;100197.97;;;8.57;39.85
42671;BME280;28283;55.426;37.756;2023-04-06T19:26:59;100195.44;;;8.47;39.84
42671;BME280;28283;55.426;37.756;2023-04-06T19:32:00;100198.91;;;8.39;40.08
42671;BME280;28283;55.426;37.756;2023-04-06T19:37:01;100198.06;;;8.31;40.25
42671;BME280;28283;55.426;37.756;2023-04-06T19:42:02;100185.50;;;8.15;40.33
42671;BME280;28283;55.426;37.756;2023-04-06T19:47:03;100204.75;;;8.27;40.83
42671;BME280;28283;55.426;37.756;2023-04-06T19:52:04;100204.03;;;8.00;39.94
42671;BME280;28283;55.426;37.756;2023-04-06T19:57:05;100191.78;;;7.81;40.28
42671;BME280;28283;55.426;37.756;2023-04-06T20:02:07;100216.53;;;7.83;41.03
42671;BME280;28283;55.426;37.756;2023-04-06T20:07:08;100198.06;;;7.63;40.54
42671;BME280;28283;55.426;37.756;2023-04-06T20:12:08;100208.75;;;7.63;40.53
42671;BME280;28283;55.426;37.756;2023-04-06T20:17:09;100203.66;;;7.44;40.78
42671;BME280;28283;55.426;37.756;2023-04-06T20:22:10;100221.06;;;7.48;41.01
42671;BME280;28283;55.426;37.756;2023-04-06T20:27:11;100208.13;;;7.35;41.33
42671;BME280;28283;55.426;37.756;2023-04-06T20:32:11;100220.78;;;7.25;41.15
42671;BME280;28283;55.426;37.756;2023-04-06T20:37:14;100223.56;;;7.15;40.94
42671;BME280;28283;55.426;37.756;2023-04-06T20:42:18;100221.81;;;7.06;41.15
42671;BME280;28283;55.426;37.756;2023-04-06T20:47:21;100224.34;;;7.07;41.18
42671;BME280;28283;55.426;37.756;2023-04-06T20:52:22;100227.47;;;7.03;41.92
42671;BME280;28283;55.426;37.756;2023-04-06T20:57:23;100227.59;;;6.93;41.83
42671;BME280;28283;55.426;37.756;2023-04-06T21:02:24;100232.69;;;6.86;41.75
42671;BME280;28283;55.426;37.756;2023-04-06T21:07:25;100235.28;;;6.78;42.03
42671;BME280;28283;55.426;37.756;2023-04-06T21:17:29;100236.31;;;6.59;42.29
42671;BME280;28283;55.426;37.756;2023-04-06T21:22:29;100242.25;;;6.53;42.50
42671;BME280;28283;55.426;37.756;2023-04-06T21:27:30;100220.75;;;6.37;42.83
42671;BME280;28283;55.426;37.756;2023-04-06T21:32:30;100201.84;;;6.12;42.55
42671;BME280;28283;55.426;37.756;2023-04-06T21:37:31;100237.53;;;6.29;42.93
42671;BME280;28283;55.426;37.756;2023-04-06T21:42:32;100202.56;;;6.04;43.04
42671;BME280;28283;55.426;37.756;2023-04-06T21:47:33;100236.91;;;6.17;43.33
42671;BME280;28283;55.426;37.756;2023-04-06T21:52:34;100244.22;;;6.15;43.51
42671;BME280;28283;55.426;37.756;2023-04-06T21:57:36;100248.88;;;6.13;43.99
42671;BME280;28283;55.426;37.756;2023-04-06T22:02:36;100231.13;;;5.94;44.00
42671;BME280;28283;55.426;37.756;2023-04-06T22:07:38;100247.72;;;5.98;44.31
42671;BME280;28283;55.426;37.756;2023-04-06T22:12:38;100250.09;;;5.91;44.54
42671;BME280;28283;55.426;37.756;2023-04-06T22:17:39;100219.34;;;5.69;45.11
42671;BME280;28283;55.426;37.756;2023-04-06T22:22:40;100203.28;;;5.51;45.22
42671;BME280;28283;55.426;37.756;2023-04-06T22:27:41;100242.31;;;5.80;44.38
42671;BME280;28283;55.426;37.756;2023-04-06T22:32:41;100248.00;;;5.57;45.57
42671;BME280;28283;55.426;37.756;2023-04-06T22:37:42;100237.81;;;5.43;45.71
42671;BME280;28283;55.426;37.756;2023-04-06T22:42:43;100250.47;;;5.41;46.17
42671;BME280;28283;55.426;37.756;2023-04-06T22:47:44;100243.19;;;5.33;46.25
42671;BME280;28283;55.426;37.756;2023-04-06T22:52:44;100242.38;;;5.23;47.06
42671;BME280;28283;55.426;37.756;2023-04-06T22:57:45;100252.75;;;5.16;46.83
42671;BME280;28283;55.426;37.756;2023-04-06T23:02:46;100216.06;;;4.90;46.73
42671;BME280;28283;55.426;37.756;2023-04-06T23:07:47;100221.81;;;4.86;47.44
42671;BME280;28283;55.426;37.756;2023-04-06T23:12:47;100204.91;;;4.67;47.47
42671;BME280;28283;55.426;37.756;2023-04-06T23:17:48;100229.84;;;4.76;47.72
42671;BME280;28283;55.426;37.756;2023-04-06T23:22:49;100184.00;;;4.43;47.60
42671;BME280;28283;55.426;37.756;2023-04-06T23:27:49;100239.63;;;4.75;48.24
42671;BME280;28283;55.426;37.756;2023-04-06T23:32:51;100225.78;;;4.62;48.59
42671;BME280;28283;55.426;37.756;2023-04-06T23:37:52;100243.59;;;4.62;48.75
42671;BME280;28283;55.426;37.756;2023-04-06T23:42:52;100226.19;;;4.57;48.54
42671;BME280;28283;55.426;37.756;2023-04-06T23:47:53;100226.06;;;4.49;48.92
42671;BME280;28283;55.426;37.756;2023-04-06T23:52:53;100214.84;;;4.36;49.15
42671;BME280;28283;55.426;37.756;2023-04-06T23:57:54;100226.63;;;4.33;49.36
